createdAt,value
2023-01-22T00:00:32.855Z,2.83
2023-01-22T00:05:36.499Z,2.53
2023-01-22T00:10:41.228Z,2.87
2023-01-22T00:15:44.606Z,3.20
2023-01-22T00:20:48.627Z,3.10
2023-01-22T00:26:02.060Z,2.90
2023-01-22T00:31:07.642Z,3.10
2023-01-22T00:36:12.754Z,2.67
2023-01-22T00:41:19.700Z,3.57
2023-01-22T00:46:23.235Z,4.10
2023-01-22T00:51:27.000Z,2.50
2023-01-22T00:56:31.916Z,2.60
2023-01-22T01:01:35.595Z,2.53
2023-01-22T01:06:39.286Z,3.03
2023-01-22T01:11:44.590Z,2.60
2023-01-22T01:16:48.347Z,2.50
2023-01-22T01:21:52.319Z,2.30
2023-01-22T01:26:57.061Z,3.07
2023-01-22T01:32:00.791Z,2.77
2023-01-22T01:37:04.207Z,2.63
2023-01-22T01:42:09.271Z,2.57
2023-01-22T01:47:32.231Z,2.73
2023-01-22T01:52:35.835Z,2.57
2023-01-22T01:57:42.727Z,2.40
2023-01-22T02:02:46.742Z,2.57
2023-01-22T02:07:50.164Z,2.80
2023-01-22T02:12:58.253Z,3.13
2023-01-22T02:18:02.493Z,2.77
2023-01-22T02:23:08.180Z,2.70
2023-01-22T02:28:11.701Z,2.53
2023-01-22T02:33:17.817Z,2.90
2023-01-22T02:38:23.040Z,2.50
2023-01-22T02:43:27.013Z,2.83
2023-01-22T02:48:30.425Z,2.80
2023-01-22T02:53:35.257Z,2.60
2023-01-22T02:58:39.217Z,2.67
2023-01-22T03:03:42.714Z,2.70
2023-01-22T03:08:47.827Z,3.77
2023-01-22T03:14:08.591Z,3.40
2023-01-22T03:19:29.555Z,3.10
2023-01-22T03:24:34.816Z,2.90
2023-01-22T03:29:38.650Z,2.60
2023-01-22T03:34:44.095Z,3.10
2023-01-22T03:39:49.220Z,2.53
2023-01-22T03:45:02.643Z,2.47
2023-01-22T03:50:08.518Z,2.60
2023-01-22T03:55:13.418Z,2.47
2023-01-22T04:00:17.905Z,2.93
2023-01-22T04:05:22.248Z,3.03
2023-01-22T04:10:27.503Z,3.17
2023-01-22T04:15:30.915Z,2.70
2023-01-22T04:20:36.444Z,2.77
2023-01-22T04:26:04.331Z,2.73
2023-01-22T04:31:08.991Z,4.47
2023-01-22T04:36:18.743Z,3.93
2023-01-22T04:41:23.737Z,4.30
2023-01-22T04:46:27.205Z,2.87
2023-01-22T04:51:30.724Z,3.73
2023-01-22T04:56:35.648Z,3.03
2023-01-22T05:01:39.569Z,3.80
2023-01-22T05:06:43.433Z,3.60
2023-01-22T05:11:48.633Z,2.93
2023-01-22T05:16:52.854Z,3.60
2023-01-22T05:21:57.049Z,3.50
2023-01-22T05:27:02.246Z,3.40
2023-01-22T05:32:11.533Z,3.37
2023-01-22T05:37:21.267Z,3.70
2023-01-22T05:42:26.267Z,3.10
2023-01-22T05:47:30.396Z,3.33
2023-01-22T05:52:56.063Z,3.60
2023-01-22T05:58:01.257Z,5.47
2023-01-22T06:03:05.234Z,4.47
2023-01-22T06:08:19.196Z,3.87
2023-01-22T06:13:29.067Z,4.87
2023-01-22T06:18:36.854Z,2.63
2023-01-22T06:23:40.644Z,3.73
2023-01-22T06:28:46.774Z,4.40
2023-01-22T06:33:50.913Z,4.07
2023-01-22T06:38:54.494Z,3.03
2023-01-22T06:44:13.080Z,3.57
2023-01-22T06:49:16.960Z,3.23
2023-01-22T06:54:20.326Z,3.30
2023-01-22T06:59:25.183Z,5.23
2023-01-22T07:04:28.688Z,3.97
2023-01-22T07:09:32.048Z,6.23
2023-01-22T07:14:37.863Z,3.30
2023-01-22T07:19:41.658Z,4.03
2023-01-22T07:24:45.437Z,3.20
2023-01-22T07:29:51.071Z,2.60
2023-01-22T07:34:54.460Z,3.27
2023-01-22T07:39:58.088Z,6.77
2023-01-22T07:45:03.104Z,3.73
2023-01-22T07:50:08.050Z,4.40
2023-01-22T07:55:11.596Z,5.87
2023-01-22T08:00:17.706Z,3.00
2023-01-22T08:05:21.520Z,2.93
2023-01-22T08:10:25.176Z,2.70
2023-01-22T08:15:30.311Z,3.47
2023-01-22T08:20:33.656Z,2.10
2023-01-22T08:25:37.274Z,2.27
2023-01-22T08:30:46.820Z,2.67
2023-01-22T08:35:51.507Z,1.93
2023-01-22T08:40:55.141Z,2.00
2023-01-22T08:46:00.019Z,2.97
2023-01-22T08:51:03.692Z,2.07
2023-01-22T08:56:08.026Z,2.27
2023-01-22T09:01:18.211Z,2.33
2023-01-22T09:06:23.258Z,2.50
2023-01-22T09:11:26.601Z,2.63
2023-01-22T09:16:34.213Z,2.30
2023-01-22T09:21:38.484Z,2.83
2023-01-22T09:26:42.664Z,2.70
2023-01-22T09:31:47.477Z,2.20
2023-01-22T09:36:50.958Z,2.13
2023-01-22T09:41:56.784Z,2.60
2023-01-22T09:47:05.995Z,2.30
2023-01-22T09:52:12.340Z,2.13
2023-01-22T09:57:30.693Z,2.30
2023-01-22T10:02:42.656Z,3.70
2023-01-22T10:07:54.263Z,2.40
2023-01-22T10:13:02.445Z,2.50
2023-01-22T10:18:16.618Z,2.43
2023-01-22T10:23:22.762Z,3.33
2023-01-22T10:28:28.257Z,2.53
2023-01-22T10:33:44.467Z,2.53
2023-01-22T10:38:48.174Z,2.67
2023-01-22T10:43:51.593Z,2.53
2023-01-22T10:49:03.325Z,2.40
2023-01-22T10:54:22.431Z,3.07
2023-01-22T10:59:29.492Z,2.50
2023-01-22T11:04:35.336Z,3.00
2023-01-22T11:09:44.245Z,4.03
2023-01-22T11:14:51.788Z,2.77
2023-01-22T11:20:05.147Z,2.83
2023-01-22T11:25:12.179Z,3.73
2023-01-22T11:30:51.465Z,3.17
2023-01-22T11:36:01.799Z,2.83
2023-01-22T11:41:20.104Z,2.90
2023-01-22T11:46:45.398Z,2.50
2023-01-22T11:51:58.987Z,2.80
2023-01-22T11:57:18.961Z,3.40
2023-01-22T12:02:43.851Z,2.87
2023-01-22T12:08:03.839Z,3.03
2023-01-22T12:13:22.012Z,9.43
2023-01-22T12:19:06.585Z,5.43
2023-01-22T12:24:16.213Z,4.27
2023-01-22T12:29:24.808Z,3.47
2023-01-22T12:34:33.802Z,2.57
2023-01-22T12:39:44.852Z,3.10
2023-01-22T12:45:03.725Z,3.20
2023-01-22T12:50:18.824Z,3.07
2023-01-22T12:55:31.666Z,3.07
2023-01-22T13:00:36.953Z,3.27
2023-01-22T13:05:44.876Z,3.03
2023-01-22T13:10:56.866Z,3.37
2023-01-22T13:16:04.250Z,4.10
2023-01-22T13:21:10.871Z,4.33
2023-01-22T13:26:22.559Z,2.80
2023-01-22T13:31:26.643Z,3.43
2023-01-22T13:36:30.102Z,4.20
2023-01-22T13:41:37.232Z,4.57
2023-01-22T13:46:40.751Z,3.77
2023-01-22T13:51:44.581Z,3.90
2023-01-22T13:56:49.402Z,6.10
2023-01-22T14:01:54.624Z,7.70
2023-01-22T14:06:58.090Z,4.33
2023-01-22T14:12:15.058Z,3.60
2023-01-22T14:17:23.927Z,3.23
2023-01-22T14:22:27.650Z,3.90
2023-01-22T14:27:44.743Z,3.83
2023-01-22T14:32:48.539Z,3.97
2023-01-22T14:37:53.454Z,4.13
2023-01-22T14:43:01.008Z,4.17
2023-01-22T14:48:05.248Z,4.73
2023-01-22T14:53:08.939Z,4.93
2023-01-22T14:58:16.283Z,4.37
2023-01-22T15:03:19.846Z,4.70
2023-01-22T15:08:23.190Z,4.70
2023-01-22T15:13:28.177Z,5.00
2023-01-22T15:18:31.643Z,4.60
2023-01-22T15:23:36.648Z,5.33
2023-01-22T15:28:41.555Z,5.57
2023-01-22T15:33:44.996Z,5.53
2023-01-22T15:38:49.016Z,5.50
2023-01-22T15:43:56.782Z,6.17
2023-01-22T15:49:01.589Z,6.40
2023-01-22T15:54:07.245Z,5.90
2023-01-22T15:59:12.534Z,6.80
2023-01-22T16:04:16.233Z,7.10
2023-01-22T16:09:19.580Z,6.30
2023-01-22T16:14:24.699Z,6.77
2023-01-22T16:19:28.107Z,6.67
2023-01-22T16:24:32.935Z,6.50
2023-01-22T16:29:37.968Z,6.43
2023-01-22T16:34:41.653Z,6.60
2023-01-22T16:39:45.100Z,8.80
2023-01-22T16:44:50.204Z,7.60
2023-01-22T16:49:53.924Z,9.27
2023-01-22T16:54:57.461Z,7.80
2023-01-22T17:00:02.409Z,8.77
2023-01-22T17:05:13.031Z,8.40
2023-01-22T17:10:17.034Z,7.40
2023-01-22T17:15:22.455Z,8.20
2023-01-22T17:20:25.995Z,8.23
2023-01-22T17:25:29.716Z,8.57
2023-01-22T17:30:34.654Z,9.70
2023-01-22T17:35:38.362Z,7.90
2023-01-22T17:40:42.334Z,9.00
2023-01-22T17:45:49.206Z,8.80
2023-01-22T17:50:53.075Z,8.87
2023-01-22T17:55:56.961Z,7.50
2023-01-22T18:01:05.697Z,7.50
2023-01-22T18:06:09.790Z,7.57
2023-01-22T18:11:15.385Z,7.07
2023-01-22T18:16:21.409Z,6.90
2023-01-22T18:21:25.369Z,7.33
2023-01-22T18:26:29.389Z,7.73
2023-01-22T18:31:34.659Z,8.00
2023-01-22T18:36:40.553Z,9.00
2023-01-22T18:41:45.762Z,8.23
2023-01-22T18:46:52.467Z,9.97
2023-01-22T18:51:59.286Z,10.40
2023-01-22T18:57:05.222Z,11.23
2023-01-22T19:02:16.205Z,11.10
2023-01-22T19:07:20.337Z,10.47
2023-01-22T19:12:24.207Z,10.10
2023-01-22T19:17:29.308Z,10.00
2023-01-22T19:22:32.863Z,10.73
2023-01-22T19:27:36.383Z,10.97
2023-01-22T19:32:41.283Z,10.50
2023-01-22T19:37:44.902Z,12.67
2023-01-22T19:42:49.439Z,12.37
2023-01-22T19:47:57.454Z,11.50
2023-01-22T19:53:01.338Z,10.73
2023-01-22T19:58:06.179Z,9.90
2023-01-22T20:03:11.447Z,10.07
2023-01-22T20:08:14.969Z,10.83
2023-01-22T20:13:18.723Z,10.73
2023-01-22T20:18:23.970Z,9.50
2023-01-22T20:23:29.069Z,9.23
2023-01-22T20:28:33.675Z,9.87
2023-01-22T20:33:38.719Z,9.90
2023-01-22T20:38:42.220Z,10.77
2023-01-22T20:43:46.475Z,10.37
2023-01-22T20:48:52.506Z,10.20
2023-01-22T20:53:57.200Z,9.63
2023-01-22T20:59:02.816Z,9.17
2023-01-22T21:04:08.249Z,9.77
2023-01-22T21:09:12.503Z,11.33
2023-01-22T21:14:18.033Z,11.63
2023-01-22T21:19:26.103Z,10.80
2023-01-22T21:24:29.771Z,11.03
2023-01-22T21:29:33.164Z,10.57
2023-01-22T21:34:38.003Z,10.00
2023-01-22T21:39:45.183Z,8.70
2023-01-22T21:45:06.326Z,10.00
2023-01-22T21:50:12.275Z,10.60
2023-01-22T21:55:16.433Z,10.47
2023-01-22T22:00:20.928Z,9.90
2023-01-22T22:05:27.518Z,10.80
2023-01-22T22:10:31.146Z,11.13
2023-01-22T22:15:35.099Z,10.53
2023-01-22T22:20:40.031Z,9.30
2023-01-22T22:25:47.189Z,9.80
2023-01-22T22:30:50.836Z,10.83
2023-01-22T22:35:55.943Z,12.70
2023-01-22T22:41:01.134Z,12.03
2023-01-22T22:46:10.024Z,11.40
2023-01-22T22:51:16.973Z,12.57
2023-01-22T22:56:21.115Z,11.80
2023-01-22T23:01:26.547Z,11.67
2023-01-22T23:06:33.241Z,10.30
2023-01-22T23:11:45.684Z,11.43
2023-01-22T23:16:50.013Z,11.73
2023-01-22T23:21:57.015Z,12.20
2023-01-22T23:27:00.727Z,11.80
2023-01-22T23:32:04.108Z,11.93
2023-01-22T23:37:08.934Z,11.13
2023-01-22T23:42:12.434Z,11.13
2023-01-22T23:47:15.846Z,10.00
2023-01-22T23:52:21.161Z,10.70
2023-01-22T23:57:24.623Z,10.73
